createdAt,value
2023-10-05T00:01:13.132Z,15.67
2023-10-05T00:03:59.867Z,17.27
2023-10-05T00:06:47.856Z,17.69
2023-10-05T00:09:34.182Z,16.52
2023-10-05T00:12:24.343Z,15.89
2023-10-05T00:15:13.099Z,17.00
2023-10-05T00:18:00.049Z,17.87
2023-10-05T00:20:49.601Z,17.46
2023-10-05T00:23:36.834Z,16.14
2023-10-05T00:26:29.986Z,15.64
2023-10-05T00:29:25.580Z,17.09
2023-10-05T00:32:16.908Z,17.45
2023-10-05T00:35:12.825Z,16.22
2023-10-05T00:38:17.555Z,15.17
2023-10-05T00:41:09.496Z,15.53
2023-10-05T00:43:56.820Z,17.05
2023-10-05T00:46:50.285Z,17.84
2023-10-05T00:49:49.947Z,17.01
2023-10-05T00:52:36.765Z,15.75
2023-10-05T00:55:24.223Z,15.32
2023-10-05T00:58:15.902Z,16.73
2023-10-05T01:01:07.064Z,17.48
2023-10-05T01:03:57.142Z,16.06
2023-10-05T01:06:50.609Z,15.54
2023-10-05T01:10:02.931Z,16.78
2023-10-05T01:12:52.608Z,17.70
2023-10-05T01:15:39.694Z,17.32
2023-10-05T01:18:27.468Z,15.96
2023-10-05T01:21:13.652Z,15.66
2023-10-05T01:24:00.278Z,16.89
2023-10-05T01:26:47.357Z,17.61
2023-10-05T01:29:35.315Z,16.76
2023-10-05T01:32:22.188Z,15.47
2023-10-05T01:35:16.283Z,15.73
2023-10-05T01:38:03.565Z,17.10
2023-10-05T01:40:52.619Z,17.52
2023-10-05T01:43:43.764Z,16.42
2023-10-05T01:46:34.088Z,15.26
2023-10-05T01:49:21.245Z,15.97
2023-10-05T01:52:08.960Z,17.15
2023-10-05T01:54:55.535Z,17.04
2023-10-05T01:57:43.854Z,15.68
2023-10-05T02:00:32.626Z,15.29
2023-10-05T02:03:20.500Z,16.58
2023-10-05T02:06:12.526Z,17.17
2023-10-05T02:08:59.215Z,15.97
2023-10-05T02:11:45.969Z,15.31
2023-10-05T02:14:32.167Z,16.73
2023-10-05T02:17:20.532Z,17.14
2023-10-05T02:20:09.513Z,15.99
2023-10-05T02:22:56.082Z,15.42
2023-10-05T02:25:43.602Z,16.60
2023-10-05T02:28:35.192Z,17.46
2023-10-05T02:31:23.324Z,16.89
2023-10-05T02:34:11.325Z,15.63
2023-10-05T02:36:58.002Z,15.62
2023-10-05T02:39:44.698Z,16.92
2023-10-05T02:42:31.283Z,17.33
2023-10-05T02:45:18.653Z,16.09
2023-10-05T02:48:11.224Z,15.39
2023-10-05T02:50:58.608Z,16.47
2023-10-05T02:53:47.676Z,17.15
2023-10-05T02:56:34.756Z,16.46
2023-10-05T02:59:25.525Z,15.36
2023-10-05T03:02:15.888Z,16.09
2023-10-05T03:05:06.476Z,16.93
2023-10-05T03:07:54.733Z,16.15
2023-10-05T03:10:45.239Z,15.10
2023-10-05T03:13:32.473Z,16.06
2023-10-05T03:16:22.888Z,17.18
2023-10-05T03:19:15.879Z,16.56
2023-10-05T03:22:07.100Z,15.32
2023-10-05T03:24:55.587Z,16.23
2023-10-05T03:27:42.989Z,17.15
2023-10-05T03:30:32.159Z,16.96
2023-10-05T03:33:19.165Z,15.60
2023-10-05T03:36:15.113Z,15.25
2023-10-05T03:39:07.687Z,17.04
2023-10-05T03:41:54.346Z,16.69
2023-10-05T03:44:41.452Z,15.39
2023-10-05T03:47:29.822Z,15.84
2023-10-05T03:50:22.737Z,17.09
2023-10-05T03:53:17.040Z,16.46
2023-10-05T03:56:04.006Z,15.47
2023-10-05T03:58:53.680Z,16.37
2023-10-05T04:01:40.319Z,17.32
2023-10-05T04:04:29.657Z,16.64
2023-10-05T04:07:17.235Z,15.41
2023-10-05T04:10:05.021Z,16.05
2023-10-05T04:12:56.324Z,16.99
2023-10-05T04:15:43.055Z,15.90
2023-10-05T04:18:30.975Z,15.47
2023-10-05T04:21:20.604Z,16.79
2023-10-05T04:24:07.671Z,17.07
2023-10-05T04:26:55.329Z,15.92
2023-10-05T04:29:41.818Z,15.49
2023-10-05T04:32:28.228Z,16.77
2023-10-05T04:35:24.223Z,17.35
2023-10-05T04:38:12.275Z,16.13
2023-10-05T04:40:59.810Z,15.49
2023-10-05T04:43:49.225Z,16.80
2023-10-05T04:46:36.160Z,17.15
2023-10-05T04:49:25.741Z,15.88
2023-10-05T04:52:20.590Z,15.99
2023-10-05T04:55:32.317Z,16.97
2023-10-05T04:58:32.184Z,15.60
2023-10-05T05:01:30.949Z,15.79
2023-10-05T05:04:36.874Z,17.09
2023-10-05T05:07:23.513Z,16.54
2023-10-05T05:10:12.948Z,15.52
2023-10-05T05:13:00.352Z,16.46
2023-10-05T05:15:47.456Z,17.49
2023-10-05T05:18:38.999Z,16.09
2023-10-05T05:21:25.870Z,15.49
2023-10-05T05:24:14.927Z,16.88
2023-10-05T05:27:04.731Z,15.92
2023-10-05T05:29:54.469Z,15.57
2023-10-05T05:32:43.642Z,17.12
2023-10-05T05:35:30.368Z,16.68
2023-10-05T05:38:17.205Z,15.51
2023-10-05T05:41:11.044Z,16.05
2023-10-05T05:43:57.704Z,16.95
2023-10-05T05:46:45.724Z,15.82
2023-10-05T05:49:32.374Z,15.74
2023-10-05T05:52:20.151Z,17.02
2023-10-05T05:55:11.940Z,17.57
2023-10-05T05:58:00.873Z,16.42
2023-10-05T06:00:47.762Z,15.43
2023-10-05T06:03:35.100Z,16.49
2023-10-05T06:06:22.134Z,16.96
2023-10-05T06:09:08.774Z,15.87
2023-10-05T06:11:55.602Z,16.28
2023-10-05T06:14:43.214Z,17.41
2023-10-05T06:17:31.080Z,16.16
2023-10-05T06:20:19.114Z,15.59
2023-10-05T06:23:07.291Z,17.07
2023-10-05T06:25:54.781Z,16.64
2023-10-05T06:28:41.451Z,15.55
2023-10-05T06:31:28.877Z,16.18
2023-10-05T06:34:15.502Z,17.40
2023-10-05T06:37:03.331Z,16.91
2023-10-05T06:39:49.890Z,15.87
2023-10-05T06:42:36.561Z,16.30
2023-10-05T06:45:24.935Z,17.69
2023-10-05T06:48:11.504Z,16.78
2023-10-05T06:50:59.471Z,16.09
2023-10-05T06:53:46.187Z,17.22
2023-10-05T06:56:32.686Z,16.99
2023-10-05T06:59:22.548Z,16.07
2023-10-05T07:02:14.482Z,16.09
2023-10-05T07:05:02.667Z,17.69
2023-10-05T07:07:49.036Z,16.84
2023-10-05T07:10:35.393Z,15.91
2023-10-05T07:13:24.203Z,16.36
2023-10-05T07:16:11.140Z,17.71
2023-10-05T07:18:58.548Z,17.05
2023-10-05T07:21:45.898Z,16.12
2023-10-05T07:24:32.865Z,16.34
2023-10-05T07:27:20.004Z,17.57
2023-10-05T07:30:09.953Z,17.02
2023-10-05T07:33:05.157Z,16.14
2023-10-05T07:36:00.607Z,16.35
2023-10-05T07:38:47.078Z,17.99
2023-10-05T07:41:34.014Z,17.73
2023-10-05T07:44:20.619Z,16.72
2023-10-05T07:47:08.015Z,15.93
2023-10-05T07:49:55.168Z,16.54
2023-10-05T07:52:45.296Z,17.76
2023-10-05T07:55:32.514Z,17.07
2023-10-05T07:58:20.531Z,16.29
2023-10-05T08:01:07.271Z,16.42
2023-10-05T08:03:54.585Z,18.05
2023-10-05T08:06:45.199Z,17.37
2023-10-05T08:09:31.466Z,16.48
2023-10-05T08:12:17.991Z,16.02
2023-10-05T08:15:06.583Z,17.30
2023-10-05T08:17:52.954Z,18.20
2023-10-05T08:20:39.628Z,17.17
2023-10-05T08:23:26.946Z,16.35
2023-10-05T08:26:14.198Z,16.19
2023-10-05T08:29:01.028Z,17.66
2023-10-05T08:31:47.987Z,18.04
2023-10-05T08:34:34.565Z,16.88
2023-10-05T08:37:23.394Z,16.19
2023-10-05T08:40:40.013Z,16.49
2023-10-05T08:43:26.416Z,18.51
2023-10-05T08:46:13.440Z,17.99
2023-10-05T08:49:08.840Z,17.07
2023-10-05T08:52:04.627Z,16.44
2023-10-05T08:54:52.414Z,16.16
2023-10-05T08:57:39.041Z,17.81
2023-10-05T09:00:39.689Z,18.17
2023-10-05T09:03:31.215Z,17.24
2023-10-05T09:06:21.928Z,16.56
2023-10-05T09:09:10.921Z,16.30
2023-10-05T09:11:57.743Z,17.95
2023-10-05T09:14:45.133Z,17.97
2023-10-05T09:17:34.936Z,17.25
2023-10-05T09:20:23.065Z,16.62
2023-10-05T09:23:15.008Z,16.36
2023-10-05T09:26:02.448Z,17.86
2023-10-05T09:28:53.293Z,18.66
2023-10-05T09:34:35.482Z,17.00
2023-10-05T09:37:25.903Z,16.53
2023-10-05T09:40:18.266Z,16.69
2023-10-05T09:43:07.169Z,17.94
2023-10-05T09:45:53.931Z,17.34
2023-10-05T09:48:41.495Z,16.74
2023-10-05T09:51:28.926Z,16.40
2023-10-05T09:54:18.221Z,17.88
2023-10-05T09:57:11.724Z,18.14
2023-10-05T10:00:01.211Z,17.27
2023-10-05T10:02:47.835Z,16.60
2023-10-05T10:05:42.974Z,16.41
2023-10-05T10:08:32.531Z,18.32
2023-10-05T10:11:20.851Z,18.23
2023-10-05T10:14:11.346Z,17.24
2023-10-05T10:17:01.841Z,16.61
2023-10-05T10:19:56.531Z,17.12
2023-10-05T10:22:51.793Z,18.20
2023-10-05T10:25:42.084Z,17.38
2023-10-05T10:28:52.255Z,16.89
2023-10-05T10:31:50.115Z,18.21
2023-10-05T10:34:51.017Z,17.44
2023-10-05T10:37:46.121Z,16.75
2023-10-05T10:40:33.988Z,18.27
2023-10-05T10:43:33.410Z,19.00
2023-10-05T10:46:35.213Z,17.89
2023-10-05T10:49:22.490Z,17.06
2023-10-05T10:52:23.400Z,18.08
2023-10-05T10:55:24.217Z,19.26
2023-10-05T10:58:15.072Z,18.49
2023-10-05T11:01:05.821Z,17.37
2023-10-05T11:04:02.203Z,17.95
2023-10-05T11:06:49.405Z,19.60
2023-10-05T11:09:38.984Z,19.29
2023-10-05T11:12:25.715Z,17.89
2023-10-05T11:15:12.645Z,17.50
2023-10-05T11:18:00.806Z,19.13
2023-10-05T11:20:53.602Z,19.72
2023-10-05T11:23:47.013Z,18.64
2023-10-05T11:26:44.521Z,18.53
2023-10-05T11:29:47.167Z,19.73
2023-10-05T11:33:00.832Z,19.64
2023-10-05T11:35:53.503Z,18.16
2023-10-05T11:38:40.380Z,18.92
2023-10-05T11:41:31.121Z,19.62
2023-10-05T11:44:25.275Z,20.09
2023-10-05T11:47:47.414Z,19.54
2023-10-05T11:50:34.459Z,18.02
2023-10-05T11:53:22.970Z,18.71
2023-10-05T11:56:10.969Z,19.86
2023-10-05T11:59:01.506Z,19.40
2023-10-05T12:01:48.875Z,18.12
2023-10-05T12:04:40.958Z,18.86
2023-10-05T12:07:27.925Z,19.83
2023-10-05T12:10:14.813Z,18.31
2023-10-05T12:13:03.676Z,18.77
2023-10-05T12:15:52.830Z,19.40
2023-10-05T12:18:43.301Z,20.50
2023-10-05T12:21:30.101Z,19.74
2023-10-05T12:24:36.814Z,19.30
2023-10-05T12:27:23.587Z,20.71
2023-10-05T12:30:13.737Z,21.04
2023-10-05T12:33:02.773Z,20.18
2023-10-05T12:35:53.899Z,19.65
2023-10-05T12:38:40.760Z,19.66
2023-10-05T12:41:37.796Z,21.73
2023-10-05T12:44:25.040Z,21.70
2023-10-05T12:47:11.911Z,21.08
2023-10-05T12:49:58.291Z,20.72
2023-10-05T12:52:44.905Z,20.61
2023-10-05T12:55:31.673Z,20.55
2023-10-05T12:58:18.332Z,20.71
2023-10-05T13:01:14.248Z,20.61
2023-10-05T13:04:02.517Z,20.53
2023-10-05T13:06:49.247Z,20.54
2023-10-05T13:09:36.225Z,20.40
2023-10-05T13:12:22.788Z,20.16
2023-10-05T13:15:10.314Z,19.65
2023-10-05T13:17:57.413Z,19.88
2023-10-05T13:20:45.360Z,19.58
2023-10-05T13:23:32.289Z,19.52
2023-10-05T13:26:19.493Z,20.27
2023-10-05T13:29:09.230Z,20.94
2023-10-05T13:31:57.415Z,21.49
2023-10-05T13:34:47.349Z,21.12
2023-10-05T13:37:35.610Z,20.79
2023-10-05T13:40:29.558Z,20.75
2023-10-05T13:43:15.958Z,21.41
2023-10-05T13:46:23.376Z,21.99
2023-10-05T13:49:10.443Z,22.52
2023-10-05T13:52:00.068Z,22.35
2023-10-05T13:54:47.803Z,21.73
2023-10-05T13:57:34.401Z,20.70
2023-10-05T14:00:21.069Z,19.69
2023-10-05T14:03:07.720Z,18.90
2023-10-05T14:06:02.818Z,18.70
2023-10-05T14:08:49.503Z,19.55
2023-10-05T14:11:39.317Z,20.44
2023-10-05T14:14:26.488Z,21.64
2023-10-05T14:17:13.209Z,21.59
2023-10-05T14:19:59.890Z,21.14
2023-10-05T14:22:47.182Z,20.49
2023-10-05T14:25:34.103Z,19.85
2023-10-05T14:28:25.103Z,19.36
2023-10-05T14:31:12.388Z,19.38
2023-10-05T14:34:01.480Z,20.02
2023-10-05T14:36:50.169Z,20.36
2023-10-05T14:39:38.483Z,19.93
2023-10-05T14:42:25.956Z,19.81
2023-10-05T14:45:15.778Z,19.44
2023-10-05T14:48:08.877Z,19.60
2023-10-05T14:50:56.656Z,20.45
2023-10-05T14:53:44.409Z,21.30
2023-10-05T14:56:30.970Z,21.21
2023-10-05T14:59:17.961Z,21.57
2023-10-05T15:02:04.317Z,21.94
2023-10-05T15:04:50.650Z,21.98
2023-10-05T15:07:48.404Z,21.97
2023-10-05T15:10:35.407Z,22.29
2023-10-05T15:13:22.438Z,21.91
2023-10-05T15:16:10.419Z,21.18
2023-10-05T15:18:57.261Z,20.22
2023-10-05T15:21:43.754Z,19.35
2023-10-05T15:24:32.268Z,18.60
2023-10-05T15:27:19.102Z,17.97
2023-10-05T15:30:11.105Z,17.43
2023-10-05T15:32:57.358Z,17.92
2023-10-05T15:35:44.405Z,19.07
2023-10-05T15:38:31.112Z,18.50
2023-10-05T15:41:19.872Z,17.66
2023-10-05T15:44:09.467Z,17.18
2023-10-05T15:46:56.737Z,18.74
2023-10-05T15:49:43.429Z,18.85
2023-10-05T15:52:29.980Z,17.87
2023-10-05T15:55:18.268Z,17.25
2023-10-05T15:58:08.525Z,18.56
2023-10-05T16:00:57.085Z,19.03
2023-10-05T16:03:43.427Z,17.96
2023-10-05T16:06:30.498Z,17.12
2023-10-05T16:09:17.189Z,17.30
2023-10-05T16:12:06.172Z,18.20
2023-10-05T16:14:54.572Z,17.51
2023-10-05T16:17:49.373Z,16.77
2023-10-05T16:20:38.916Z,16.87
2023-10-05T16:23:25.960Z,18.54
2023-10-05T16:26:13.206Z,18.54
2023-10-05T16:29:00.192Z,17.36
2023-10-05T16:34:37.856Z,16.96
2023-10-05T16:37:24.528Z,18.61
2023-10-05T16:40:13.710Z,18.37
2023-10-05T16:43:01.820Z,17.23
2023-10-05T16:45:48.784Z,16.85
2023-10-05T16:48:36.972Z,18.31
2023-10-05T16:51:23.432Z,18.25
2023-10-05T16:54:11.105Z,17.14
2023-10-05T16:56:58.277Z,16.97
2023-10-05T16:59:45.256Z,18.32
2023-10-05T17:02:32.016Z,19.07
2023-10-05T17:05:20.893Z,17.67
2023-10-05T17:08:07.818Z,16.99
2023-10-05T17:10:54.140Z,18.12
2023-10-05T17:13:41.154Z,19.13
2023-10-05T17:16:30.717Z,18.56
2023-10-05T17:19:17.153Z,17.12
2023-10-05T17:22:03.750Z,16.88
2023-10-05T17:24:54.986Z,18.52
2023-10-05T17:27:42.075Z,18.09
2023-10-05T17:30:28.474Z,16.81
2023-10-05T17:33:15.079Z,17.09
2023-10-05T17:36:01.892Z,18.07
2023-10-05T17:38:49.471Z,17.62
2023-10-05T17:41:36.312Z,16.53
2023-10-05T17:44:23.271Z,17.24
2023-10-05T17:47:10.962Z,17.91
2023-10-05T17:49:58.012Z,16.65
2023-10-05T17:52:46.556Z,16.16
2023-10-05T17:55:36.534Z,17.62
2023-10-05T17:58:27.491Z,18.32
2023-10-05T18:01:18.758Z,17.12
2023-10-05T18:04:06.908Z,15.86
2023-10-05T18:06:53.324Z,15.65
2023-10-05T18:09:40.071Z,17.20
2023-10-05T18:12:26.757Z,18.17
2023-10-05T18:15:15.547Z,18.58
2023-10-05T18:18:03.433Z,17.14
2023-10-05T18:20:50.736Z,16.61
2023-10-05T18:23:39.153Z,17.68
2023-10-05T18:26:26.505Z,18.10
2023-10-05T18:29:14.161Z,16.72
2023-10-05T18:32:03.221Z,16.01
2023-10-05T18:34:50.447Z,17.06
2023-10-05T18:37:38.464Z,18.04
2023-10-05T18:40:25.628Z,17.48
2023-10-05T18:43:14.405Z,16.06
2023-10-05T18:46:01.889Z,16.14
2023-10-05T18:48:48.781Z,17.46
2023-10-05T18:51:37.938Z,17.68
2023-10-05T18:54:25.078Z,16.38
2023-10-05T18:57:13.549Z,16.02
2023-10-05T19:00:03.086Z,17.54
2023-10-05T19:02:50.741Z,17.88
2023-10-05T19:05:38.083Z,16.67
2023-10-05T19:08:24.734Z,16.21
2023-10-05T19:11:11.997Z,17.52
2023-10-05T19:13:58.828Z,17.88
2023-10-05T19:16:45.818Z,16.84
2023-10-05T19:19:32.942Z,16.36
2023-10-05T19:22:20.560Z,17.57
2023-10-05T19:25:07.943Z,18.07
2023-10-05T19:27:54.970Z,16.83
2023-10-05T19:30:42.153Z,16.22
2023-10-05T19:33:29.103Z,17.67
2023-10-05T19:36:16.396Z,18.10
2023-10-05T19:39:05.053Z,16.93
2023-10-05T19:41:55.254Z,16.47
2023-10-05T19:44:42.352Z,17.76
2023-10-05T19:47:30.072Z,18.16
2023-10-05T19:50:17.059Z,17.07
2023-10-05T19:53:03.989Z,16.45
2023-10-05T19:55:57.992Z,17.73
2023-10-05T19:58:44.767Z,18.16
2023-10-05T20:01:31.326Z,16.95
2023-10-05T20:04:18.027Z,15.94
2023-10-05T20:07:08.729Z,16.83
2023-10-05T20:09:57.795Z,18.12
2023-10-05T20:12:44.520Z,17.99
2023-10-05T20:15:31.357Z,16.65
2023-10-05T20:18:18.175Z,16.21
2023-10-05T20:21:13.265Z,17.48
2023-10-05T20:24:00.182Z,17.70
2023-10-05T20:26:46.705Z,16.31
2023-10-05T20:29:33.092Z,16.41
2023-10-05T20:32:19.671Z,17.62
2023-10-05T20:35:07.526Z,17.60
2023-10-05T20:37:54.118Z,16.33
2023-10-05T20:40:40.896Z,16.13
2023-10-05T20:43:28.246Z,17.23
2023-10-05T20:46:15.145Z,18.02
2023-10-05T20:49:01.691Z,17.04
2023-10-05T20:51:48.184Z,15.64
2023-10-05T20:54:35.115Z,16.37
2023-10-05T20:57:21.789Z,17.51
2023-10-05T21:00:10.004Z,18.13
2023-10-05T21:02:56.615Z,16.88
2023-10-05T21:05:43.388Z,15.68
2023-10-05T21:08:30.325Z,16.32
2023-10-05T21:11:16.596Z,17.40
2023-10-05T21:14:03.192Z,17.30
2023-10-05T21:16:53.142Z,15.85
2023-10-05T21:19:40.555Z,15.58
2023-10-05T21:22:27.067Z,16.81
2023-10-05T21:25:14.837Z,17.55
2023-10-05T21:28:01.425Z,16.98
2023-10-05T21:30:48.429Z,15.47
2023-10-05T21:33:35.192Z,15.20
2023-10-05T21:36:22.165Z,16.40
2023-10-05T21:39:08.992Z,17.22
2023-10-05T21:41:55.871Z,17.01
2023-10-05T21:44:42.485Z,15.60
2023-10-05T21:47:29.179Z,14.82
2023-10-05T21:50:15.774Z,16.00
2023-10-05T21:53:05.472Z,16.97
2023-10-05T21:55:52.300Z,16.62
2023-10-05T21:58:39.147Z,15.08
2023-10-05T22:01:25.870Z,14.55
2023-10-05T22:04:12.682Z,15.77
2023-10-05T22:06:59.368Z,16.66
2023-10-05T22:09:46.244Z,16.70
2023-10-05T22:12:36.001Z,15.35
2023-10-05T22:15:22.790Z,14.68
2023-10-05T22:18:11.660Z,15.85
2023-10-05T22:20:59.159Z,16.71
2023-10-05T22:23:45.734Z,16.65
2023-10-05T22:26:32.358Z,15.18
2023-10-05T22:29:19.230Z,14.79
2023-10-05T22:32:05.939Z,15.98
2023-10-05T22:34:52.777Z,16.73
2023-10-05T22:37:40.045Z,16.72
2023-10-05T22:40:26.236Z,15.27
2023-10-05T22:43:12.867Z,14.44
2023-10-05T22:45:59.277Z,15.56
2023-10-05T22:48:45.767Z,16.41
2023-10-05T22:51:32.115Z,16.43
2023-10-05T22:54:18.659Z,14.98
2023-10-05T22:57:05.336Z,14.35
2023-10-05T22:59:52.662Z,15.51
2023-10-05T23:02:39.833Z,16.43
2023-10-05T23:05:27.124Z,16.44
2023-10-05T23:08:13.619Z,15.01
2023-10-05T23:11:01.083Z,14.46
2023-10-05T23:13:50.334Z,15.53
2023-10-05T23:16:37.259Z,16.34
2023-10-05T23:19:23.625Z,16.58
2023-10-05T23:22:12.001Z,15.30
2023-10-05T23:24:59.025Z,14.49
2023-10-05T23:27:47.667Z,15.54
2023-10-05T23:30:34.332Z,16.34
2023-10-05T23:33:26.956Z,16.31
2023-10-05T23:36:16.751Z,14.78
2023-10-05T23:39:09.907Z,14.13
2023-10-05T23:41:57.854Z,15.33
2023-10-05T23:44:47.808Z,16.14
2023-10-05T23:47:37.614Z,16.14
2023-10-05T23:50:30.904Z,14.65
2023-10-05T23:53:17.361Z,14.47
2023-10-05T23:56:10.406Z,15.57
2023-10-05T23:58:57.271Z,16.25
